sensor_id;sensor_type;location;lat;lon;timestamp;temperature;humidity
9915;DHT22;4996;48.746;9.174;2024-01-27T00:01:31;6.10;99.90
9915;DHT22;4996;48.746;9.174;2024-01-27T00:03:57;6.10;99.90
9915;DHT22;4996;48.746;9.174;2024-01-27T00:06:23;6.10;99.90
9915;DHT22;4996;48.746;9.174;2024-01-27T00:08:48;6.00;99.90
9915;DHT22;4996;48.746;9.174;2024-01-27T00:11:14;5.90;99.90
9915;DHT22;4996;48.746;9.174;2024-01-27T00:13:40;5.90;99.90
9915;DHT22;4996;48.746;9.174;2024-01-27T00:16:05;5.80;99.90
9915;DHT22;4996;48.746;9.174;2024-01-27T00:18:31;5.80;99.90
9915;DHT22;4996;48.746;9.174;2024-01-27T00:20:57;5.70;99.90
9915;DHT22;4996;48.746;9.174;2024-01-27T00:23:22;5.70;99.90
9915;DHT22;4996;48.746;9.174;2024-01-27T00:25:48;5.70;99.90
9915;DHT22;4996;48.746;9.174;2024-01-27T00:28:13;5.60;99.90
9915;DHT22;4996;48.746;9.174;2024-01-27T00:30:39;5.50;99.90
9915;DHT22;4996;48.746;9.174;2024-01-27T00:33:04;5.40;99.90
9915;DHT22;4996;48.746;9.174;2024-01-27T00:35:30;5.40;99.90
9915;DHT22;4996;48.746;9.174;2024-01-27T00:37:55;5.30;99.90
9915;DHT22;4996;48.746;9.174;2024-01-27T00:40:22;5.30;99.90
9915;DHT22;4996;48.746;9.174;2024-01-27T00:42:48;5.20;99.90
9915;DHT22;4996;48.746;9.174;2024-01-27T00:45:13;5.20;99.90
9915;DHT22;4996;48.746;9.174;2024-01-27T00:47:39;5.10;99.90
9915;DHT22;4996;48.746;9.174;2024-01-27T00:50:05;5.10;99.90
9915;DHT22;4996;48.746;9.174;2024-01-27T00:52:31;5.10;99.90
9915;DHT22;4996;48.746;9.174;2024-01-27T00:54:56;5.00;99.90
9915;DHT22;4996;48.746;9.174;2024-01-27T00:57:22;4.90;99.90
9915;DHT22;4996;48.746;9.174;2024-01-27T00:59:48;4.90;99.90
9915;DHT22;4996;48.746;9.174;2024-01-27T01:02:13;4.80;99.90
9915;DHT22;4996;48.746;9.174;2024-01-27T01:04:39;4.80;99.90
9915;DHT22;4996;48.746;9.174;2024-01-27T01:07:06;4.80;99.90
9915;DHT22;4996;48.746;9.174;2024-01-27T01:09:31;4.70;99.90
9915;DHT22;4996;48.746;9.174;2024-01-27T01:11:57;4.60;99.90
9915;DHT22;4996;48.746;9.174;2024-01-27T01:14:22;4.60;99.90
9915;DHT22;4996;48.746;9.174;2024-01-27T01:16:48;4.60;99.90
9915;DHT22;4996;48.746;9.174;2024-01-27T01:19:13;4.60;99.90
9915;DHT22;4996;48.746;9.174;2024-01-27T01:21:39;4.50;99.90
9915;DHT22;4996;48.746;9.174;2024-01-27T01:24:05;4.50;99.90
9915;DHT22;4996;48.746;9.174;2024-01-27T01:26:30;4.50;99.90
9915;DHT22;4996;48.746;9.174;2024-01-27T01:28:56;4.50;99.90
9915;DHT22;4996;48.746;9.174;2024-01-27T01:31:21;4.50;99.90
9915;DHT22;4996;48.746;9.174;2024-01-27T01:33:47;4.50;99.90
9915;DHT22;4996;48.746;9.174;2024-01-27T01:36:12;4.50;99.90
9915;DHT22;4996;48.746;9.174;2024-01-27T01:38:38;4.50;99.90
9915;DHT22;4996;48.746;9.174;2024-01-27T01:41:04;4.40;99.90
9915;DHT22;4996;48.746;9.174;2024-01-27T01:43:29;4.30;99.90
9915;DHT22;4996;48.746;9.174;2024-01-27T01:45:55;4.20;99.90
9915;DHT22;4996;48.746;9.174;2024-01-27T01:48:21;4.20;99.90
9915;DHT22;4996;48.746;9.174;2024-01-27T01:50:46;4.20;99.90
9915;DHT22;4996;48.746;9.174;2024-01-27T01:53:13;4.20;99.90
9915;DHT22;4996;48.746;9.174;2024-01-27T01:55:39;4.30;99.90
9915;DHT22;4996;48.746;9.174;2024-01-27T01:58:05;4.20;99.90
9915;DHT22;4996;48.746;9.174;2024-01-27T02:00:31;4.20;99.90
9915;DHT22;4996;48.746;9.174;2024-01-27T02:02:57;4.20;99.90
9915;DHT22;4996;48.746;9.174;2024-01-27T02:05:23;4.10;99.90
9915;DHT22;4996;48.746;9.174;2024-01-27T02:07:48;4.10;99.90
9915;DHT22;4996;48.746;9.174;2024-01-27T02:10:15;4.00;99.90
9915;DHT22;4996;48.746;9.174;2024-01-27T02:12:42;4.00;99.90
9915;DHT22;4996;48.746;9.174;2024-01-27T02:15:11;4.00;99.90
9915;DHT22;4996;48.746;9.174;2024-01-27T02:17:40;4.00;99.90
9915;DHT22;4996;48.746;9.174;2024-01-27T02:20:07;4.00;99.90
9915;DHT22;4996;48.746;9.174;2024-01-27T02:22:35;4.00;99.90
9915;DHT22;4996;48.746;9.174;2024-01-27T02:25:02;4.00;99.90
9915;DHT22;4996;48.746;9.174;2024-01-27T02:27:28;4.00;99.90
9915;DHT22;4996;48.746;9.174;2024-01-27T02:29:53;4.00;99.90
9915;DHT22;4996;48.746;9.174;2024-01-27T02:32:19;4.00;99.90
9915;DHT22;4996;48.746;9.174;2024-01-27T02:34:44;3.90;99.90
9915;DHT22;4996;48.746;9.174;2024-01-27T02:37:10;3.90;99.90
9915;DHT22;4996;48.746;9.174;2024-01-27T02:39:35;3.90;99.90
9915;DHT22;4996;48.746;9.174;2024-01-27T02:42:01;3.90;99.90
9915;DHT22;4996;48.746;9.174;2024-01-27T02:44:27;3.90;99.90
9915;DHT22;4996;48.746;9.174;2024-01-27T02:46:52;3.80;99.90
9915;DHT22;4996;48.746;9.174;2024-01-27T02:49:18;3.80;99.90
9915;DHT22;4996;48.746;9.174;2024-01-27T02:51:43;3.70;99.90
9915;DHT22;4996;48.746;9.174;2024-01-27T02:54:09;3.70;99.90
9915;DHT22;4996;48.746;9.174;2024-01-27T02:56:35;3.80;99.90
9915;DHT22;4996;48.746;9.174;2024-01-27T02:59:01;3.80;99.90
9915;DHT22;4996;48.746;9.174;2024-01-27T03:01:26;3.90;99.90
9915;DHT22;4996;48.746;9.174;2024-01-27T03:03:52;4.00;99.90
9915;DHT22;4996;48.746;9.174;2024-01-27T03:06:17;4.00;99.90
9915;DHT22;4996;48.746;9.174;2024-01-27T03:08:43;4.00;99.90
9915;DHT22;4996;48.746;9.174;2024-01-27T03:11:08;4.00;99.90
9915;DHT22;4996;48.746;9.174;2024-01-27T03:13:34;3.90;99.90
9915;DHT22;4996;48.746;9.174;2024-01-27T03:15:59;3.80;99.90
9915;DHT22;4996;48.746;9.174;2024-01-27T03:18:25;3.80;99.90
9915;DHT22;4996;48.746;9.174;2024-01-27T03:20:51;3.70;99.90
9915;DHT22;4996;48.746;9.174;2024-01-27T03:23:16;3.70;99.90
9915;DHT22;4996;48.746;9.174;2024-01-27T03:25:42;3.70;99.90
9915;DHT22;4996;48.746;9.174;2024-01-27T03:28:08;3.70;99.90
9915;DHT22;4996;48.746;9.174;2024-01-27T03:30:33;3.80;99.90
9915;DHT22;4996;48.746;9.174;2024-01-27T03:32:59;3.80;99.90
9915;DHT22;4996;48.746;9.174;2024-01-27T03:35:24;3.70;99.90
9915;DHT22;4996;48.746;9.174;2024-01-27T03:37:50;3.70;99.90
9915;DHT22;4996;48.746;9.174;2024-01-27T03:40:16;3.50;99.90
9915;DHT22;4996;48.746;9.174;2024-01-27T03:42:42;3.60;99.90
9915;DHT22;4996;48.746;9.174;2024-01-27T03:45:08;3.50;99.90
9915;DHT22;4996;48.746;9.174;2024-01-27T03:47:33;3.60;99.90
9915;DHT22;4996;48.746;9.174;2024-01-27T03:49:59;3.60;99.90
9915;DHT22;4996;48.746;9.174;2024-01-27T03:52:24;3.80;99.90
9915;DHT22;4996;48.746;9.174;2024-01-27T03:54:50;3.70;99.90
9915;DHT22;4996;48.746;9.174;2024-01-27T03:57:15;3.50;99.90
9915;DHT22;4996;48.746;9.174;2024-01-27T03:59:41;3.40;99.90
9915;DHT22;4996;48.746;9.174;2024-01-27T04:02:07;3.60;99.90
9915;DHT22;4996;48.746;9.174;2024-01-27T04:04:32;4.00;99.90
9915;DHT22;4996;48.746;9.174;2024-01-27T04:06:58;3.60;99.90
9915;DHT22;4996;48.746;9.174;2024-01-27T04:09:23;3.60;99.90
9915;DHT22;4996;48.746;9.174;2024-01-27T04:11:49;3.60;99.90
9915;DHT22;4996;48.746;9.174;2024-01-27T04:14:15;3.50;99.90
9915;DHT22;4996;48.746;9.174;2024-01-27T04:16:40;3.40;99.90
9915;DHT22;4996;48.746;9.174;2024-01-27T04:19:06;3.40;99.90
9915;DHT22;4996;48.746;9.174;2024-01-27T04:21:31;3.30;99.90
9915;DHT22;4996;48.746;9.174;2024-01-27T04:23:57;3.30;99.90
9915;DHT22;4996;48.746;9.174;2024-01-27T04:26:22;3.20;99.90
9915;DHT22;4996;48.746;9.174;2024-01-27T04:28:48;3.20;99.90
9915;DHT22;4996;48.746;9.174;2024-01-27T04:31:13;3.20;99.90
9915;DHT22;4996;48.746;9.174;2024-01-27T04:33:39;3.20;99.90
9915;DHT22;4996;48.746;9.174;2024-01-27T04:36:05;3.20;99.90
9915;DHT22;4996;48.746;9.174;2024-01-27T04:38:32;3.20;99.90
9915;DHT22;4996;48.746;9.174;2024-01-27T04:40:57;3.40;99.90
9915;DHT22;4996;48.746;9.174;2024-01-27T04:43:23;3.30;99.90
9915;DHT22;4996;48.746;9.174;2024-01-27T04:45:49;3.60;99.90
9915;DHT22;4996;48.746;9.174;2024-01-27T04:48:15;3.40;99.90
9915;DHT22;4996;48.746;9.174;2024-01-27T04:50:40;3.40;99.90
9915;DHT22;4996;48.746;9.174;2024-01-27T04:53:06;3.40;99.90
9915;DHT22;4996;48.746;9.174;2024-01-27T04:55:32;3.40;99.90
9915;DHT22;4996;48.746;9.174;2024-01-27T04:57:57;3.30;99.90
9915;DHT22;4996;48.746;9.174;2024-01-27T05:00:24;3.30;99.90
9915;DHT22;4996;48.746;9.174;2024-01-27T05:02:52;3.40;99.90
9915;DHT22;4996;48.746;9.174;2024-01-27T05:05:17;3.40;99.90
9915;DHT22;4996;48.746;9.174;2024-01-27T05:07:43;3.30;99.90
9915;DHT22;4996;48.746;9.174;2024-01-27T05:10:10;3.20;99.90
9915;DHT22;4996;48.746;9.174;2024-01-27T05:12:37;3.20;99.90
9915;DHT22;4996;48.746;9.174;2024-01-27T05:15:03;3.10;99.90
9915;DHT22;4996;48.746;9.174;2024-01-27T05:17:28;3.10;99.90
9915;DHT22;4996;48.746;9.174;2024-01-27T05:19:54;3.00;99.90
9915;DHT22;4996;48.746;9.174;2024-01-27T05:22:20;3.00;99.90
9915;DHT22;4996;48.746;9.174;2024-01-27T05:24:45;3.10;99.90
9915;DHT22;4996;48.746;9.174;2024-01-27T05:27:11;3.10;99.90
9915;DHT22;4996;48.746;9.174;2024-01-27T05:29:37;3.10;99.90
9915;DHT22;4996;48.746;9.174;2024-01-27T05:32:03;3.30;99.90
9915;DHT22;4996;48.746;9.174;2024-01-27T05:34:28;3.30;99.90
9915;DHT22;4996;48.746;9.174;2024-01-27T05:36:54;3.20;99.90
9915;DHT22;4996;48.746;9.174;2024-01-27T05:39:19;3.20;99.90
9915;DHT22;4996;48.746;9.174;2024-01-27T05:41:45;3.20;99.90
9915;DHT22;4996;48.746;9.174;2024-01-27T05:44:10;3.20;99.90
9915;DHT22;4996;48.746;9.174;2024-01-27T05:46:36;3.30;99.90
9915;DHT22;4996;48.746;9.174;2024-01-27T05:49:01;3.40;99.90
9915;DHT22;4996;48.746;9.174;2024-01-27T05:51:29;3.10;99.90
9915;DHT22;4996;48.746;9.174;2024-01-27T05:53:55;3.00;99.90
9915;DHT22;4996;48.746;9.174;2024-01-27T05:56:21;3.00;99.90
9915;DHT22;4996;48.746;9.174;2024-01-27T05:58:47;2.90;99.90
9915;DHT22;4996;48.746;9.174;2024-01-27T06:01:12;3.00;99.90
9915;DHT22;4996;48.746;9.174;2024-01-27T06:03:41;3.10;99.90
9915;DHT22;4996;48.746;9.174;2024-01-27T06:06:07;3.10;99.90
9915;DHT22;4996;48.746;9.174;2024-01-27T06:08:32;3.10;99.90
9915;DHT22;4996;48.746;9.174;2024-01-27T06:10:58;3.10;99.90
9915;DHT22;4996;48.746;9.174;2024-01-27T06:13:23;3.30;99.90
9915;DHT22;4996;48.746;9.174;2024-01-27T06:15:49;3.00;99.90
9915;DHT22;4996;48.746;9.174;2024-01-27T06:18:16;3.00;99.90
9915;DHT22;4996;48.746;9.174;2024-01-27T06:20:41;2.90;99.90
9915;DHT22;4996;48.746;9.174;2024-01-27T06:23:07;2.90;99.90
9915;DHT22;4996;48.746;9.174;2024-01-27T06:25:33;2.90;99.90
9915;DHT22;4996;48.746;9.174;2024-01-27T06:27:59;2.80;99.90
9915;DHT22;4996;48.746;9.174;2024-01-27T06:30:24;2.70;99.90
9915;DHT22;4996;48.746;9.174;2024-01-27T06:32:50;2.70;99.90
9915;DHT22;4996;48.746;9.174;2024-01-27T06:35:16;2.70;99.90
9915;DHT22;4996;48.746;9.174;2024-01-27T06:37:41;2.70;99.90
9915;DHT22;4996;48.746;9.174;2024-01-27T06:40:07;2.70;99.90
9915;DHT22;4996;48.746;9.174;2024-01-27T06:42:34;2.60;99.90
9915;DHT22;4996;48.746;9.174;2024-01-27T06:45:00;2.60;99.90
9915;DHT22;4996;48.746;9.174;2024-01-27T06:47:26;2.60;99.90
9915;DHT22;4996;48.746;9.174;2024-01-27T06:49:51;2.60;99.90
9915;DHT22;4996;48.746;9.174;2024-01-27T06:52:17;2.70;99.90
9915;DHT22;4996;48.746;9.174;2024-01-27T06:54:42;2.70;99.90
9915;DHT22;4996;48.746;9.174;2024-01-27T06:57:29;2.80;99.90
9915;DHT22;4996;48.746;9.174;2024-01-27T06:59:55;2.70;99.90
9915;DHT22;4996;48.746;9.174;2024-01-27T07:04:50;2.70;99.90
9915;DHT22;4996;48.746;9.174;2024-01-27T07:07:15;2.70;99.90
9915;DHT22;4996;48.746;9.174;2024-01-27T07:09:41;2.70;99.90
9915;DHT22;4996;48.746;9.174;2024-01-27T07:12:07;3.10;99.90
9915;DHT22;4996;48.746;9.174;2024-01-27T07:14:33;2.80;99.90
9915;DHT22;4996;48.746;9.174;2024-01-27T07:16:59;2.80;99.90
9915;DHT22;4996;48.746;9.174;2024-01-27T07:19:24;2.80;99.90
9915;DHT22;4996;48.746;9.174;2024-01-27T07:21:50;3.00;99.90
9915;DHT22;4996;48.746;9.174;2024-01-27T07:24:15;2.90;99.90
9915;DHT22;4996;48.746;9.174;2024-01-27T07:26:41;2.60;99.90
9915;DHT22;4996;48.746;9.174;2024-01-27T07:29:07;2.70;99.90
9915;DHT22;4996;48.746;9.174;2024-01-27T07:31:33;2.70;99.90
9915;DHT22;4996;48.746;9.174;2024-01-27T07:33:58;2.80;99.90
9915;DHT22;4996;48.746;9.174;2024-01-27T07:36:24;2.80;99.90
9915;DHT22;4996;48.746;9.174;2024-01-27T07:38:51;2.80;99.90
9915;DHT22;4996;48.746;9.174;2024-01-27T07:41:17;3.00;99.90
9915;DHT22;4996;48.746;9.174;2024-01-27T07:43:42;2.70;99.90
9915;DHT22;4996;48.746;9.174;2024-01-27T07:46:08;2.80;99.90
9915;DHT22;4996;48.746;9.174;2024-01-27T07:48:33;2.80;99.90
9915;DHT22;4996;48.746;9.174;2024-01-27T07:50:59;2.80;99.90
9915;DHT22;4996;48.746;9.174;2024-01-27T07:53:25;2.80;99.90
9915;DHT22;4996;48.746;9.174;2024-01-27T07:55:50;2.90;99.90
9915;DHT22;4996;48.746;9.174;2024-01-27T07:58:19;2.90;99.90
9915;DHT22;4996;48.746;9.174;2024-01-27T08:00:45;3.00;99.90
9915;DHT22;4996;48.746;9.174;2024-01-27T08:03:10;3.00;99.90
9915;DHT22;4996;48.746;9.174;2024-01-27T08:05:36;3.10;99.90
9915;DHT22;4996;48.746;9.174;2024-01-27T08:08:01;3.10;99.90
9915;DHT22;4996;48.746;9.174;2024-01-27T08:10:27;3.20;99.90
9915;DHT22;4996;48.746;9.174;2024-01-27T08:12:52;3.30;99.90
9915;DHT22;4996;48.746;9.174;2024-01-27T08:15:18;3.60;99.90
9915;DHT22;4996;48.746;9.174;2024-01-27T08:17:43;3.40;99.90
9915;DHT22;4996;48.746;9.174;2024-01-27T08:20:09;3.50;99.90
9915;DHT22;4996;48.746;9.174;2024-01-27T08:22:35;3.60;99.90
9915;DHT22;4996;48.746;9.174;2024-01-27T08:25:00;3.70;99.90
9915;DHT22;4996;48.746;9.174;2024-01-27T08:27:26;3.80;99.90
9915;DHT22;4996;48.746;9.174;2024-01-27T08:29:51;4.00;99.90
9915;DHT22;4996;48.746;9.174;2024-01-27T08:32:17;4.20;99.90
9915;DHT22;4996;48.746;9.174;2024-01-27T08:34:43;4.30;99.90
9915;DHT22;4996;48.746;9.174;2024-01-27T08:37:17;4.30;99.90
9915;DHT22;4996;48.746;9.174;2024-01-27T08:39:43;4.20;99.90
9915;DHT22;4996;48.746;9.174;2024-01-27T08:42:08;4.20;99.90
9915;DHT22;4996;48.746;9.174;2024-01-27T08:44:34;4.20;99.90
9915;DHT22;4996;48.746;9.174;2024-01-27T08:46:59;4.30;99.90
9915;DHT22;4996;48.746;9.174;2024-01-27T08:49:25;4.50;99.90
9915;DHT22;4996;48.746;9.174;2024-01-27T08:51:50;4.50;99.90
9915;DHT22;4996;48.746;9.174;2024-01-27T08:54:16;4.40;99.90
9915;DHT22;4996;48.746;9.174;2024-01-27T08:56:43;4.40;99.90
9915;DHT22;4996;48.746;9.174;2024-01-27T08:59:08;4.40;99.90
9915;DHT22;4996;48.746;9.174;2024-01-27T09:01:34;4.50;99.90
9915;DHT22;4996;48.746;9.174;2024-01-27T09:04:00;4.60;99.90
9915;DHT22;4996;48.746;9.174;2024-01-27T09:06:26;4.80;99.90
9915;DHT22;4996;48.746;9.174;2024-01-27T09:08:51;5.10;99.90
9915;DHT22;4996;48.746;9.174;2024-01-27T09:11:17;5.10;99.90
9915;DHT22;4996;48.746;9.174;2024-01-27T09:13:42;5.40;99.90
9915;DHT22;4996;48.746;9.174;2024-01-27T09:16:10;5.50;99.90
9915;DHT22;4996;48.746;9.174;2024-01-27T09:18:38;5.70;99.90
9915;DHT22;4996;48.746;9.174;2024-01-27T09:21:04;5.70;99.90
9915;DHT22;4996;48.746;9.174;2024-01-27T09:23:29;6.00;99.90
9915;DHT22;4996;48.746;9.174;2024-01-27T09:25:55;6.20;99.90
9915;DHT22;4996;48.746;9.174;2024-01-27T09:28:21;6.50;99.90
9915;DHT22;4996;48.746;9.174;2024-01-27T09:30:46;6.60;99.90
9915;DHT22;4996;48.746;9.174;2024-01-27T09:33:12;6.70;99.90
9915;DHT22;4996;48.746;9.174;2024-01-27T09:35:38;6.90;99.90
9915;DHT22;4996;48.746;9.174;2024-01-27T09:38:04;6.90;99.90
9915;DHT22;4996;48.746;9.174;2024-01-27T09:40:30;7.00;99.90
9915;DHT22;4996;48.746;9.174;2024-01-27T09:42:59;7.10;99.90
9915;DHT22;4996;48.746;9.174;2024-01-27T09:45:26;7.30;99.90
9915;DHT22;4996;48.746;9.174;2024-01-27T09:47:53;7.40;99.90
9915;DHT22;4996;48.746;9.174;2024-01-27T09:50:21;7.70;99.90
9915;DHT22;4996;48.746;9.174;2024-01-27T09:52:47;7.80;99.90
9915;DHT22;4996;48.746;9.174;2024-01-27T09:55:12;7.80;99.90
9915;DHT22;4996;48.746;9.174;2024-01-27T09:57:38;7.60;99.90
9915;DHT22;4996;48.746;9.174;2024-01-27T10:00:06;8.00;99.90
9915;DHT22;4996;48.746;9.174;2024-01-27T10:02:34;8.20;99.90
9915;DHT22;4996;48.746;9.174;2024-01-27T10:05:01;8.20;99.90
9915;DHT22;4996;48.746;9.174;2024-01-27T10:07:27;8.30;99.90
9915;DHT22;4996;48.746;9.174;2024-01-27T10:09:53;8.40;99.90
9915;DHT22;4996;48.746;9.174;2024-01-27T10:12:21;8.60;99.90
9915;DHT22;4996;48.746;9.174;2024-01-27T10:14:48;8.50;99.90
9915;DHT22;4996;48.746;9.174;2024-01-27T10:17:22;8.50;99.90
9915;DHT22;4996;48.746;9.174;2024-01-27T10:19:59;8.60;99.90
9915;DHT22;4996;48.746;9.174;2024-01-27T10:22:26;8.40;99.90
9915;DHT22;4996;48.746;9.174;2024-01-27T10:24:52;8.30;99.90
9915;DHT22;4996;48.746;9.174;2024-01-27T10:27:18;8.30;99.90
9915;DHT22;4996;48.746;9.174;2024-01-27T10:29:56;8.40;99.90
9915;DHT22;4996;48.746;9.174;2024-01-27T10:32:22;8.50;99.90
9915;DHT22;4996;48.746;9.174;2024-01-27T10:35:07;8.70;99.90
9915;DHT22;4996;48.746;9.174;2024-01-27T10:37:38;8.60;99.90
9915;DHT22;4996;48.746;9.174;2024-01-27T10:40:06;9.10;99.90
9915;DHT22;4996;48.746;9.174;2024-01-27T10:42:36;9.40;99.90
9915;DHT22;4996;48.746;9.174;2024-01-27T10:45:03;9.40;99.90
9915;DHT22;4996;48.746;9.174;2024-01-27T10:47:30;9.90;99.90
9915;DHT22;4996;48.746;9.174;2024-01-27T10:49:57;10.20;99.90
9915;DHT22;4996;48.746;9.174;2024-01-27T10:52:31;11.00;99.90
9915;DHT22;4996;48.746;9.174;2024-01-27T10:55:02;11.60;99.90
9915;DHT22;4996;48.746;9.174;2024-01-27T10:57:32;11.80;99.90
9915;DHT22;4996;48.746;9.174;2024-01-27T11:00:00;12.10;99.90
9915;DHT22;4996;48.746;9.174;2024-01-27T11:02:32;12.10;99.90
9915;DHT22;4996;48.746;9.174;2024-01-27T11:05:02;12.10;99.90
9915;DHT22;4996;48.746;9.174;2024-01-27T11:07:33;12.70;99.90
9915;DHT22;4996;48.746;9.174;2024-01-27T11:09:58;13.00;97.40
9915;DHT22;4996;48.746;9.174;2024-01-27T11:12:25;12.90;97.30
9915;DHT22;4996;48.746;9.174;2024-01-27T11:14:51;12.70;98.00
9915;DHT22;4996;48.746;9.174;2024-01-27T11:17:18;12.70;97.40
9915;DHT22;4996;48.746;9.174;2024-01-27T11:19:47;12.60;97.60
9915;DHT22;4996;48.746;9.174;2024-01-27T11:22:28;13.60;97.00
9915;DHT22;4996;48.746;9.174;2024-01-27T11:27:35;14.10;94.60
9915;DHT22;4996;48.746;9.174;2024-01-27T11:30:01;14.00;94.10
9915;DHT22;4996;48.746;9.174;2024-01-27T11:32:27;14.10;94.50
9915;DHT22;4996;48.746;9.174;2024-01-27T11:34:53;13.90;93.30
9915;DHT22;4996;48.746;9.174;2024-01-27T11:37:18;13.90;92.90
9915;DHT22;4996;48.746;9.174;2024-01-27T11:39:50;14.90;92.60
9915;DHT22;4996;48.746;9.174;2024-01-27T11:42:16;15.70;90.20
9915;DHT22;4996;48.746;9.174;2024-01-27T11:44:43;15.40;89.70
9915;DHT22;4996;48.746;9.174;2024-01-27T11:47:19;15.10;89.30
9915;DHT22;4996;48.746;9.174;2024-01-27T11:49:52;15.10;89.20
9915;DHT22;4996;48.746;9.174;2024-01-27T11:52:23;15.50;87.70
9915;DHT22;4996;48.746;9.174;2024-01-27T11:54:59;15.20;87.50
9915;DHT22;4996;48.746;9.174;2024-01-27T11:57:25;14.50;85.80
9915;DHT22;4996;48.746;9.174;2024-01-27T11:59:51;13.40;87.00
9915;DHT22;4996;48.746;9.174;2024-01-27T12:02:17;12.40;90.40
9915;DHT22;4996;48.746;9.174;2024-01-27T12:04:43;11.30;91.80
9915;DHT22;4996;48.746;9.174;2024-01-27T12:07:10;10.50;93.20
9915;DHT22;4996;48.746;9.174;2024-01-27T12:09:36;10.10;94.40
9915;DHT22;4996;48.746;9.174;2024-01-27T12:12:03;9.70;95.70
9915;DHT22;4996;48.746;9.174;2024-01-27T12:14:47;9.60;96.60
9915;DHT22;4996;48.746;9.174;2024-01-27T12:17:13;9.50;96.60
9915;DHT22;4996;48.746;9.174;2024-01-27T12:19:39;9.50;97.30
9915;DHT22;4996;48.746;9.174;2024-01-27T12:22:05;10.10;97.00
9915;DHT22;4996;48.746;9.174;2024-01-27T12:24:45;10.60;96.20
9915;DHT22;4996;48.746;9.174;2024-01-27T12:27:11;12.00;95.60
9915;DHT22;4996;48.746;9.174;2024-01-27T12:29:36;12.90;93.30
9915;DHT22;4996;48.746;9.174;2024-01-27T12:32:02;14.30;92.40
9915;DHT22;4996;48.746;9.174;2024-01-27T12:34:28;14.70;90.80
9915;DHT22;4996;48.746;9.174;2024-01-27T12:36:55;15.30;89.70
9915;DHT22;4996;48.746;9.174;2024-01-27T12:39:21;16.40;86.80
9915;DHT22;4996;48.746;9.174;2024-01-27T12:41:46;16.70;84.20
9915;DHT22;4996;48.746;9.174;2024-01-27T12:44:12;16.30;82.20
9915;DHT22;4996;48.746;9.174;2024-01-27T12:46:37;16.10;80.80
9915;DHT22;4996;48.746;9.174;2024-01-27T12:49:03;15.50;79.80
9915;DHT22;4996;48.746;9.174;2024-01-27T12:51:29;16.00;80.30
9915;DHT22;4996;48.746;9.174;2024-01-27T12:53:54;15.60;80.60
9915;DHT22;4996;48.746;9.174;2024-01-27T12:56:20;16.40;79.20
9915;DHT22;4996;48.746;9.174;2024-01-27T12:58:45;16.80;77.30
9915;DHT22;4996;48.746;9.174;2024-01-27T13:01:12;16.50;75.70
9915;DHT22;4996;48.746;9.174;2024-01-27T13:03:38;16.20;74.00
9915;DHT22;4996;48.746;9.174;2024-01-27T13:06:04;15.60;74.10
9915;DHT22;4996;48.746;9.174;2024-01-27T13:08:30;14.80;75.50
9915;DHT22;4996;48.746;9.174;2024-01-27T13:10:55;14.10;77.60
9915;DHT22;4996;48.746;9.174;2024-01-27T13:13:21;13.80;76.70
9915;DHT22;4996;48.746;9.174;2024-01-27T13:15:47;13.80;77.90
9915;DHT22;4996;48.746;9.174;2024-01-27T13:18:12;13.60;77.80
9915;DHT22;4996;48.746;9.174;2024-01-27T13:20:38;12.70;77.50
9915;DHT22;4996;48.746;9.174;2024-01-27T13:23:05;12.50;78.00
9915;DHT22;4996;48.746;9.174;2024-01-27T13:25:30;12.10;77.40
9915;DHT22;4996;48.746;9.174;2024-01-27T13:27:56;11.80;78.40
9915;DHT22;4996;48.746;9.174;2024-01-27T13:30:22;11.50;78.50
9915;DHT22;4996;48.746;9.174;2024-01-27T13:32:48;11.30;79.40
9915;DHT22;4996;48.746;9.174;2024-01-27T13:35:13;11.00;80.30
9915;DHT22;4996;48.746;9.174;2024-01-27T13:37:39;10.80;81.20
9915;DHT22;4996;48.746;9.174;2024-01-27T13:40:06;10.60;80.90
9915;DHT22;4996;48.746;9.174;2024-01-27T13:42:33;10.40;80.90
9915;DHT22;4996;48.746;9.174;2024-01-27T13:44:58;10.20;80.80
9915;DHT22;4996;48.746;9.174;2024-01-27T13:47:24;10.00;80.90
9915;DHT22;4996;48.746;9.174;2024-01-27T13:49:49;9.80;82.20
9915;DHT22;4996;48.746;9.174;2024-01-27T13:52:15;9.70;82.50
9915;DHT22;4996;48.746;9.174;2024-01-27T13:54:41;9.90;82.90
9915;DHT22;4996;48.746;9.174;2024-01-27T13:57:06;9.60;82.50
9915;DHT22;4996;48.746;9.174;2024-01-27T13:59:33;9.50;82.70
9915;DHT22;4996;48.746;9.174;2024-01-27T14:01:59;9.50;83.10
9915;DHT22;4996;48.746;9.174;2024-01-27T14:04:24;9.10;83.70
9915;DHT22;4996;48.746;9.174;2024-01-27T14:06:51;9.00;84.10
9915;DHT22;4996;48.746;9.174;2024-01-27T14:09:21;9.00;84.90
9915;DHT22;4996;48.746;9.174;2024-01-27T14:11:47;8.90;83.90
9915;DHT22;4996;48.746;9.174;2024-01-27T14:14:13;8.90;84.50
9915;DHT22;4996;48.746;9.174;2024-01-27T14:16:39;8.90;84.60
9915;DHT22;4996;48.746;9.174;2024-01-27T14:19:05;8.90;86.20
9915;DHT22;4996;48.746;9.174;2024-01-27T14:21:31;8.90;87.40
9915;DHT22;4996;48.746;9.174;2024-01-27T14:23:57;8.80;87.80
9915;DHT22;4996;48.746;9.174;2024-01-27T14:26:29;8.70;89.70
9915;DHT22;4996;48.746;9.174;2024-01-27T14:28:55;8.70;90.20
9915;DHT22;4996;48.746;9.174;2024-01-27T14:31:21;8.70;89.90
9915;DHT22;4996;48.746;9.174;2024-01-27T14:33:47;8.70;90.00
9915;DHT22;4996;48.746;9.174;2024-01-27T14:36:13;8.40;90.50
9915;DHT22;4996;48.746;9.174;2024-01-27T14:38:38;8.40;90.90
9915;DHT22;4996;48.746;9.174;2024-01-27T14:41:04;8.40;91.10
9915;DHT22;4996;48.746;9.174;2024-01-27T14:43:31;8.40;91.00
9915;DHT22;4996;48.746;9.174;2024-01-27T14:45:56;8.40;91.30
9915;DHT22;4996;48.746;9.174;2024-01-27T14:48:22;8.60;91.20
9915;DHT22;4996;48.746;9.174;2024-01-27T14:50:48;8.50;91.40
9915;DHT22;4996;48.746;9.174;2024-01-27T14:53:18;8.50;92.00
9915;DHT22;4996;48.746;9.174;2024-01-27T14:55:44;8.50;91.80
9915;DHT22;4996;48.746;9.174;2024-01-27T14:58:10;8.50;91.90
9915;DHT22;4996;48.746;9.174;2024-01-27T15:00:35;8.50;92.20
9915;DHT22;4996;48.746;9.174;2024-01-27T15:03:05;8.40;92.30
9915;DHT22;4996;48.746;9.174;2024-01-27T15:05:31;8.30;92.70
9915;DHT22;4996;48.746;9.174;2024-01-27T15:07:58;8.30;92.90
9915;DHT22;4996;48.746;9.174;2024-01-27T15:10:24;8.30;93.60
9915;DHT22;4996;48.746;9.174;2024-01-27T15:12:49;8.40;94.00
9915;DHT22;4996;48.746;9.174;2024-01-27T15:15:15;8.50;94.20
9915;DHT22;4996;48.746;9.174;2024-01-27T15:17:40;8.50;94.50
9915;DHT22;4996;48.746;9.174;2024-01-27T15:20:06;8.40;95.20
9915;DHT22;4996;48.746;9.174;2024-01-27T15:22:32;8.40;95.60
9915;DHT22;4996;48.746;9.174;2024-01-27T15:24:58;8.20;96.10
9915;DHT22;4996;48.746;9.174;2024-01-27T15:27:23;8.30;96.50
9915;DHT22;4996;48.746;9.174;2024-01-27T15:29:49;8.30;96.70
9915;DHT22;4996;48.746;9.174;2024-01-27T15:32:14;8.40;96.90
9915;DHT22;4996;48.746;9.174;2024-01-27T15:34:46;8.50;97.20
9915;DHT22;4996;48.746;9.174;2024-01-27T15:37:11;8.40;97.60
9915;DHT22;4996;48.746;9.174;2024-01-27T15:39:37;8.40;98.00
9915;DHT22;4996;48.746;9.174;2024-01-27T15:42:02;8.40;98.40
9915;DHT22;4996;48.746;9.174;2024-01-27T15:44:29;8.40;98.60
9915;DHT22;4996;48.746;9.174;2024-01-27T15:46:55;8.30;99.00
9915;DHT22;4996;48.746;9.174;2024-01-27T15:49:22;8.30;99.30
9915;DHT22;4996;48.746;9.174;2024-01-27T15:51:47;8.30;99.50
9915;DHT22;4996;48.746;9.174;2024-01-27T15:54:13;8.30;99.70
9915;DHT22;4996;48.746;9.174;2024-01-27T15:56:40;8.20;99.80
9915;DHT22;4996;48.746;9.174;2024-01-27T15:59:05;8.20;99.90
9915;DHT22;4996;48.746;9.174;2024-01-27T16:01:31;8.20;99.90
9915;DHT22;4996;48.746;9.174;2024-01-27T16:03:56;8.20;99.90
9915;DHT22;4996;48.746;9.174;2024-01-27T16:06:22;8.10;99.90
9915;DHT22;4996;48.746;9.174;2024-01-27T16:08:49;8.00;99.90
9915;DHT22;4996;48.746;9.174;2024-01-27T16:11:14;8.00;99.90
9915;DHT22;4996;48.746;9.174;2024-01-27T16:13:40;7.90;99.90